Time;durP1;ratioP1;P1;durP2;ratioP2;P2;SDS_P1;SDS_P2;PMS_P1;PMS_P2;Temp;Humidity;BMP_temperature;BMP_pressure;BME280_temperature;BME280_humidity;BME280_pressure;Samples;Min_cycle;Max_cycle;Signal;HPM_P1;HPM_P2
2022/02/07 00:01:00;;;;;;;4.03;0.65;;;3.70;99.90;;;;;;6154541;23;20080;-83
2022/02/07 00:05:58;;;;;;;8.27;0.40;;;3.80;99.90;;;;;;6153631;23;20033;-84
2022/02/07 00:08:24;;;;;;;13.57;0.63;;;3.80;99.90;;;;;;6128874;23;20068;-84
2022/02/07 00:10:49;;;;;;;14.00;0.88;;;3.90;99.90;;;;;;6128743;23;20012;-84
2022/02/07 00:13:15;;;;;;;8.93;0.50;;;4.00;99.90;;;;;;6154730;23;20458;-84
2022/02/07 00:15:41;;;;;;;12.43;0.52;;;4.00;99.90;;;;;;6154445;23;20033;-83
2022/02/07 00:18:07;;;;;;;16.83;0.52;;;4.00;99.90;;;;;;6128754;23;20036;-84
2022/02/07 00:20:36;;;;;;;12.85;0.70;;;4.10;99.90;;;;;;6154665;23;20435;-83
2022/02/07 00:23:02;;;;;;;10.90;0.55;;;4.10;99.90;;;;;;6127883;23;20022;-83
2022/02/07 00:25:28;;;;;;;14.82;0.73;;;4.30;99.90;;;;;;6153003;23;20006;-83
2022/02/07 00:27:54;;;;;;;15.27;0.85;;;4.40;99.90;;;;;;6153094;23;20116;-82
2022/02/07 00:30:22;;;;;;;13.18;0.95;;;4.50;99.90;;;;;;6128705;23;20086;-84
2022/02/07 00:32:48;;;;;;;6.75;0.40;;;4.30;99.90;;;;;;6128432;23;20015;-86
2022/02/07 00:35:17;;;;;;;4.43;0.10;;;4.10;99.90;;;;;;6128158;23;20037;-84
2022/02/07 00:37:46;;;;;;;7.85;0.40;;;3.80;99.90;;;;;;6128491;23;20096;-84
2022/02/07 00:42:53;;;;;;;2.97;0.30;;;3.90;99.90;;;;;;6152153;23;20122;-84
2022/02/07 00:45:38;;;;;;;3.33;0.20;;;3.90;99.90;;;;;;6152846;23;20060;-84
2022/02/07 00:48:09;;;;;;;4.53;0.20;;;3.70;99.90;;;;;;6129347;23;20013;-86
2022/02/07 00:50:42;;;;;;;2.63;0.38;;;3.60;99.90;;;;;;6128393;23;20447;-84
2022/02/07 00:53:11;;;;;;;4.47;0.20;;;3.60;99.90;;;;;;6152972;23;20017;-84
2022/02/07 00:55:38;;;;;;;3.70;0.17;;;3.50;99.90;;;;;;6128744;23;20006;-86
2022/02/07 00:58:04;;;;;;;5.38;0.13;;;3.30;99.90;;;;;;6152985;23;20071;-85
2022/02/07 01:00:30;;;;;;;3.05;0.10;;;3.30;99.90;;;;;;6127825;23;20431;-83
2022/02/07 01:02:56;;;;;;;7.50;0.20;;;3.50;99.90;;;;;;6128778;23;20456;-85
2022/02/07 01:05:25;;;;;;;4.40;0.20;;;3.40;99.90;;;;;;6153269;23;20021;-86
2022/02/07 01:07:52;;;;;;;5.78;0.22;;;3.50;99.90;;;;;;6153314;23;20316;-85
2022/02/07 01:10:38;;;;;;;4.45;0.28;;;3.40;99.90;;;;;;6129579;23;20068;-85
2022/02/07 01:13:43;;;;;;;11.88;0.50;;;3.40;99.90;;;;;;6128867;23;20334;-84
2022/02/07 01:16:10;;;;;;;5.65;0.30;;;3.60;99.90;;;;;;6153191;23;20010;-85
2022/02/07 01:18:59;;;;;;;5.70;0.25;;;3.70;99.90;;;;;;6129493;23;20016;-81
2022/02/07 01:46:29;;;;;;;11.18;0.80;;;3.50;99.90;;;;;;6152440;23;20334;-82
2022/02/07 01:49:21;;;;;;;6.80;0.50;;;3.50;99.90;;;;;;6152529;23;20354;-81
2022/02/07 01:52:00;;;;;;;11.73;0.50;;;3.50;99.90;;;;;;6126815;23;20349;-81
2022/02/07 01:57:11;;;;;;;12.93;0.65;;;3.60;99.90;;;;;;6151683;23;20006;-82
2022/02/07 01:59:38;;;;;;;8.02;0.80;;;3.60;99.90;;;;;;6151817;23;20017;-83
2022/02/07 02:02:05;;;;;;;5.68;0.30;;;3.70;99.90;;;;;;6127122;23;20029;-83
2022/02/07 02:04:32;;;;;;;9.43;0.60;;;3.80;99.90;;;;;;6127256;23;20450;-83
2022/02/07 02:06:58;;;;;;;14.15;0.75;;;3.60;99.90;;;;;;6127591;23;20013;-82
2022/02/07 02:09:30;;;;;;;17.17;0.90;;;3.60;99.90;;;;;;6151951;23;20449;-82
2022/02/07 02:11:58;;;;;;;14.25;1.02;;;3.60;99.90;;;;;;6152102;23;20076;-84
2022/02/07 02:17:25;;;;;;;15.07;0.98;;;3.60;99.90;;;;;;6152150;23;20330;-83
2022/02/07 02:34:33;;;;;;;13.80;1.17;;;3.60;99.90;;;;;;6039021;23;20003;-81
2022/02/07 02:37:45;;;;;;;12.98;0.77;;;3.70;99.90;;;;;;6038103;23;20428;-84
2022/02/07 02:47:46;;;;;;;12.95;0.98;;;3.70;99.90;;;;;;6038958;23;20058;-83
2022/02/07 02:50:30;;;;;;;17.13;0.60;;;3.60;99.90;;;;;;6038974;23;20365;-83
2022/02/07 02:52:59;;;;;;;19.00;0.82;;;3.60;99.90;;;;;;6014704;23;20062;-83
2022/02/07 02:55:25;;;;;;;16.23;1.08;;;3.80;99.90;;;;;;6039200;23;20010;-85
2022/02/07 02:57:51;;;;;;;13.27;0.50;;;3.80;99.90;;;;;;6015481;23;20605;-82
2022/02/07 03:00:20;;;;;;;16.65;0.73;;;3.70;99.90;;;;;;6015751;23;20475;-83
2022/02/07 03:02:46;;;;;;;14.40;1.10;;;3.70;99.90;;;;;;6014980;23;20019;-84
2022/02/07 03:05:11;;;;;;;12.43;0.98;;;3.60;99.90;;;;;;6015475;23;20406;-84
2022/02/07 03:07:37;;;;;;;11.88;0.60;;;3.60;99.90;;;;;;6046709;23;20369;-84
2022/02/07 03:10:04;;;;;;;15.00;1.05;;;3.60;99.90;;;;;;6103087;23;20005;-84
2022/02/07 03:12:32;;;;;;;15.20;1.25;;;3.70;99.90;;;;;;6102732;23;20010;-84
2022/02/07 03:16:36;;;;;;;18.05;1.35;;;3.70;99.90;;;;;;6104293;23;20030;-85
2022/02/07 03:17:46;;;;;;;22.83;1.85;;;3.70;99.90;;;;;;6129268;23;20017;-83
2022/02/07 03:20:13;;;;;;;11.55;0.82;;;3.80;99.90;;;;;;6105126;23;20010;-85
2022/02/07 03:22:40;;;;;;;17.92;1.40;;;3.70;99.90;;;;;;6104121;23;20028;-85
2022/02/07 03:25:06;;;;;;;19.27;1.02;;;3.80;99.90;;;;;;6152901;23;20017;-85
2022/02/07 03:27:44;;;;;;;15.30;0.52;;;3.80;99.90;;;;;;6155488;23;20017;-83
2022/02/07 03:30:20;;;;;;;13.13;0.70;;;3.80;99.90;;;;;;6131448;23;20029;-84
2022/02/07 03:32:49;;;;;;;18.98;1.13;;;3.70;99.90;;;;;;6106335;23;20017;-85
2022/02/07 03:35:16;;;;;;;17.48;1.27;;;3.70;99.90;;;;;;6154035;23;20097;-84
2022/02/07 03:37:41;;;;;;;12.23;0.60;;;3.70;99.90;;;;;;6128381;23;20013;-83
2022/02/07 03:40:12;;;;;;;22.27;0.93;;;3.90;99.90;;;;;;6130284;23;20016;-84
2022/02/07 03:42:40;;;;;;;16.60;0.93;;;3.90;99.90;;;;;;6153632;23;20021;-85
2022/02/07 03:45:08;;;;;;;12.13;0.60;;;3.90;99.90;;;;;;6154030;23;20006;-83
2022/02/07 03:47:38;;;;;;;;;;;4.10;99.90;;;;;;6129822;23;20178;-83
2022/02/07 03:50:06;;;;;;;12.13;0.60;;;4.20;99.90;;;;;;6129545;23;20348;-84
2022/02/07 03:52:36;;;;;;;11.60;0.65;;;4.00;99.90;;;;;;6152816;23;20028;-84
2022/02/07 03:55:03;;;;;;;15.02;0.70;;;3.90;99.90;;;;;;6153304;23;20010;-83
2022/02/07 03:57:30;;;;;;;19.80;1.27;;;4.00;99.90;;;;;;6153295;23;20009;-83
2022/02/07 03:59:56;;;;;;;15.95;0.82;;;4.10;99.90;;;;;;6129654;23;20064;-83
2022/02/07 04:02:22;;;;;;;12.50;0.93;;;4.20;99.90;;;;;;6155063;23;20010;-85
2022/02/07 04:04:55;;;;;;;13.32;1.25;;;4.20;99.90;;;;;;6128554;23;20379;-84
2022/02/07 04:07:21;;;;;;;19.77;0.77;;;4.20;99.90;;;;;;6129018;23;20443;-85
2022/02/07 04:09:53;;;;;;;19.33;1.80;;;4.30;99.90;;;;;;6129239;23;20013;-86
2022/02/07 04:12:23;;;;;;;15.30;1.02;;;4.60;99.90;;;;;;6153224;23;20017;-83
2022/02/07 04:14:57;;;;;;;17.75;1.08;;;4.50;99.90;;;;;;6129744;23;20088;-84
2022/02/07 04:17:27;;;;;;;18.65;0.77;;;4.50;99.90;;;;;;6153636;23;20013;-83
2022/02/07 04:20:00;;;;;;;18.80;1.08;;;4.50;99.90;;;;;;6153431;23;20017;-83
2022/02/07 04:22:34;;;;;;;17.05;1.30;;;4.70;99.90;;;;;;6130080;23;20025;-82
2022/02/07 04:25:04;;;;;;;17.38;0.80;;;4.70;99.90;;;;;;6152593;23;20025;-83
2022/02/07 04:27:39;;;;;;;17.27;0.70;;;4.70;99.90;;;;;;6152860;23;20477;-85
2022/02/07 04:30:07;;;;;;;21.90;1.15;;;4.80;99.90;;;;;;6129378;23;20016;-82
2022/02/07 04:32:38;;;;;;;17.38;0.93;;;4.80;99.90;;;;;;6129277;23;20033;-83
2022/02/07 04:35:07;;;;;;;13.23;0.50;;;4.80;99.90;;;;;;6152830;23;20434;-84
2022/02/07 04:37:43;;;;;;;16.45;1.30;;;4.90;99.90;;;;;;6129280;23;20010;-83
2022/02/07 04:40:11;;;;;;;18.63;1.02;;;5.00;99.90;;;;;;6128559;23;20006;-83
2022/02/07 04:42:40;;;;;;;18.58;0.95;;;4.90;99.90;;;;;;6128673;23;20025;-83
2022/02/07 04:45:38;;;;;;;12.10;0.90;;;5.00;99.90;;;;;;6128390;23;20504;-83
2022/02/07 04:50:38;;;;;;;12.50;1.05;;;5.00;99.90;;;;;;6152186;23;20010;-83
2022/02/07 04:53:15;;;;;;;15.05;0.90;;;5.00;99.90;;;;;;6128671;23;20450;-81
2022/02/07 04:58:29;;;;;;;12.00;1.35;;;5.00;99.90;;;;;;6152997;23;20092;-83
2022/02/07 05:01:22;;;;;;;10.45;0.65;;;5.00;99.90;;;;;;6128197;23;20010;-83
2022/02/07 05:03:58;;;;;;;14.07;0.82;;;5.10;99.90;;;;;;6126976;23;20068;-82
2022/02/07 05:14:46;;;;;;;12.95;0.90;;;5.00;99.90;;;;;;6152904;23;20534;-81
2022/02/07 05:17:15;;;;;;;12.60;1.00;;;5.10;99.90;;;;;;6128181;23;20375;-84
2022/02/07 05:19:52;;;;;;;18.58;0.77;;;5.10;99.90;;;;;;6129923;23;20017;-83
2022/02/07 05:22:34;;;;;;;17.17;1.42;;;5.10;99.90;;;;;;6130573;23;20048;-82
2022/02/07 05:25:34;;;;;;;16.63;1.05;;;5.00;99.90;;;;;;6134408;23;20014;-85
2022/02/07 05:28:16;;;;;;;13.15;1.17;;;5.10;99.90;;;;;;6131456;23;20072;-83
2022/02/07 05:31:10;;;;;;;11.55;0.70;;;5.30;99.90;;;;;;6133991;23;20001;-82
2022/02/07 05:33:54;;;;;;;13.70;0.85;;;5.20;99.90;;;;;;6149881;23;20394;-84
2022/02/07 05:36:58;;;;;;;21.17;0.65;;;5.20;99.90;;;;;;6075183;23;20114;-83
2022/02/07 05:39:40;;;;;;;19.50;1.30;;;5.20;99.90;;;;;;6067772;23;20121;-81
2022/02/07 05:42:24;;;;;;;13.55;1.13;;;5.20;99.90;;;;;;6071314;23;20036;-81
2022/02/07 05:45:10;;;;;;;18.58;1.55;;;5.20;99.90;;;;;;6047838;23;20017;-82
2022/02/07 05:47:53;;;;;;;22.25;1.42;;;5.20;99.90;;;;;;6047488;23;20343;-82
2022/02/07 05:50:58;;;;;;;12.50;0.98;;;5.40;99.90;;;;;;6006462;23;20019;-82
2022/02/07 05:53:35;;;;;;;19.83;0.90;;;5.20;99.90;;;;;;5981867;23;20094;-82
2022/02/07 05:56:06;;;;;;;15.95;0.75;;;5.20;99.90;;;;;;5983040;23;20026;-82
2022/02/07 05:58:54;;;;;;;10.13;0.40;;;5.00;99.90;;;;;;5990968;23;20083;-81
2022/02/07 06:01:30;;;;;;;3.03;0.20;;;4.30;99.90;;;;;;5981379;23;20028;-85
2022/02/07 06:03:58;;;;;;;3.42;0.10;;;4.00;99.90;;;;;;5982217;23;20019;-82
2022/02/07 06:06:24;;;;;;;3.22;0.30;;;4.10;99.90;;;;;;5982258;23;20012;-82
2022/02/07 06:08:50;;;;;;;2.25;0.15;;;4.20;99.90;;;;;;6009191;23;20064;-82
2022/02/07 06:11:19;;;;;;;2.42;0.10;;;4.10;99.90;;;;;;6034495;23;20043;-82
2022/02/07 06:13:46;;;;;;;3.45;0.10;;;4.00;99.90;;;;;;5987129;23;20096;-83
2022/02/07 06:16:16;;;;;;;2.20;0.10;;;3.90;99.90;;;;;;5986976;23;20011;-82
2022/02/07 06:18:48;;;;;;;4.07;0.20;;;3.90;99.90;;;;;;6033606;23;20437;-83
2022/02/07 06:21:15;;;;;;;3.38;0.10;;;4.10;99.90;;;;;;6027026;23;20020;-83
2022/02/07 06:23:41;;;;;;;2.45;0.10;;;4.00;99.90;;;;;;6125837;23;20068;-84
2022/02/07 06:26:11;;;;;;;1.85;0.10;;;3.80;99.90;;;;;;6128320;23;20010;-83
2022/02/07 06:28:39;;;;;;;3.40;0.17;;;3.70;99.90;;;;;;6126716;23;20041;-85
2022/02/07 06:31:06;;;;;;;3.72;0.10;;;3.70;99.90;;;;;;6151337;23;20006;-84
2022/02/07 06:33:34;;;;;;;2.13;0.10;;;3.70;99.90;;;;;;6151368;23;20020;-84
2022/02/07 06:36:03;;;;;;;1.52;0.10;;;3.60;99.90;;;;;;6128041;23;20017;-84
2022/02/07 06:38:30;;;;;;;1.58;0.10;;;3.60;99.90;;;;;;6152249;23;20014;-84
2022/02/07 06:40:56;;;;;;;2.83;0.20;;;3.70;99.90;;;;;;6127407;23;20020;-84
2022/02/07 06:43:22;;;;;;;7.35;0.40;;;3.70;99.90;;;;;;6127160;23;20018;-84
2022/02/07 06:45:49;;;;;;;10.40;0.82;;;3.70;99.90;;;;;;6151324;23;20009;-84
2022/02/07 06:48:15;;;;;;;7.22;0.50;;;3.80;99.90;;;;;;6151743;23;20013;-84
2022/02/07 06:50:41;;;;;;;8.63;0.75;;;3.70;99.90;;;;;;6151383;23;20014;-85
2022/02/07 06:53:08;;;;;;;9.18;0.68;;;3.60;99.90;;;;;;6127384;23;20017;-85
2022/02/07 06:55:34;;;;;;;7.53;0.50;;;3.60;99.90;;;;;;6127044;23;20013;-84
2022/02/07 06:58:01;;;;;;;10.55;0.50;;;3.50;99.90;;;;;;6127739;23;20056;-85
2022/02/07 07:00:27;;;;;;;12.60;0.70;;;3.60;99.90;;;;;;6150864;23;20010;-85
2022/02/07 07:02:56;;;;;;;9.98;0.82;;;3.70;99.90;;;;;;6127379;23;20053;-85
2022/02/07 07:05:23;;;;;;;9.27;0.50;;;3.80;99.90;;;;;;6125724;23;20013;-84
2022/02/07 07:07:53;;;;;;;11.82;0.50;;;3.90;99.90;;;;;;6151301;23;20016;-85
2022/02/07 07:10:20;;;;;;;11.07;0.60;;;3.90;99.90;;;;;;6127212;23;20009;-85
2022/02/07 07:12:56;;;;;;;9.52;0.65;;;3.90;99.90;;;;;;6151254;23;20010;-85
2022/02/07 07:15:36;;;;;;;11.50;0.60;;;4.00;99.90;;;;;;6126022;23;20431;-85
2022/02/07 07:18:02;;;;;;;12.43;0.55;;;4.00;99.90;;;;;;6126812;23;20430;-85
2022/02/07 07:20:27;;;;;;;11.10;0.57;;;4.10;99.90;;;;;;6127026;23;20080;-84
2022/02/07 07:22:54;;;;;;;10.30;0.50;;;4.10;99.90;;;;;;6151423;23;20026;-85
2022/02/07 07:25:20;;;;;;;11.98;0.57;;;4.20;99.90;;;;;;6103194;23;20101;-85
2022/02/07 07:28:22;;;;;;;9.18;0.50;;;4.30;99.90;;;;;;6127081;23;20017;-85
2022/02/07 07:30:49;;;;;;;11.25;0.60;;;4.20;99.90;;;;;;6123774;23;20084;-85
2022/02/07 07:33:20;;;;;;;10.10;0.60;;;4.20;99.90;;;;;;6152366;23;20426;-84
2022/02/07 07:35:46;;;;;;;12.38;1.27;;;4.30;99.90;;;;;;6125867;23;20008;-82
2022/02/07 07:38:12;;;;;;;13.50;0.80;;;4.40;99.90;;;;;;6101541;23;20006;-83
2022/02/07 07:40:40;;;;;;;18.13;1.35;;;4.40;99.90;;;;;;6101706;23;20029;-83
2022/02/07 07:43:09;;;;;;;12.05;0.70;;;4.40;99.90;;;;;;6101605;23;20450;-83
2022/02/07 07:46:01;;;;;;;13.25;1.52;;;4.30;99.90;;;;;;6126447;23;20013;-83
2022/02/07 07:48:55;;;;;;;20.73;2.40;;;4.50;99.90;;;;;;6110293;23;20072;-82
2022/02/07 07:51:42;;;;;;;10.63;0.98;;;4.50;99.90;;;;;;6125903;23;20016;-83
2022/02/07 07:54:25;;;;;;;10.05;1.15;;;4.60;99.90;;;;;;6083226;23;20406;-82
2022/02/07 08:02:26;;;;;;;5.13;0.30;;;4.40;99.90;;;;;;6126998;23;20342;-83
2022/02/07 08:04:55;;;;;;;4.60;0.50;;;4.30;99.90;;;;;;6103951;23;20060;-84
2022/02/07 08:07:33;;;;;;;7.88;0.70;;;4.20;99.90;;;;;;6103734;23;20407;-83
2022/02/07 08:12:51;;;;;;;14.68;1.00;;;4.30;99.90;;;;;;6126990;23;20335;-83
2022/02/07 08:15:17;;;;;;;15.48;1.30;;;4.30;99.90;;;;;;6127549;23;20036;-83
2022/02/07 08:17:44;;;;;;;14.57;1.17;;;4.40;99.90;;;;;;6127793;23;20013;-85
2022/02/07 08:20:10;;;;;;;16.42;0.93;;;4.50;99.90;;;;;;6103621;23;20080;-84
2022/02/07 08:22:36;;;;;;;16.58;0.80;;;4.50;99.90;;;;;;6102595;23;20064;-83
2022/02/07 08:25:02;;;;;;;10.02;0.88;;;4.50;99.90;;;;;;6123201;23;20438;-83
2022/02/07 08:27:29;;;;;;;8.85;0.88;;;4.50;99.90;;;;;;6126644;23;20010;-83
2022/02/07 08:29:56;;;;;;;17.60;0.90;;;4.50;99.90;;;;;;6151360;23;20009;-83
2022/02/07 08:32:22;;;;;;;15.18;1.00;;;4.50;99.90;;;;;;6128290;23;20013;-83
2022/02/07 08:34:48;;;;;;;8.02;0.88;;;4.60;99.90;;;;;;6151778;23;20100;-83
2022/02/07 08:37:13;;;;;;;11.45;0.77;;;4.60;99.90;;;;;;6127673;23;20450;-83
2022/02/07 08:39:40;;;;;;;13.70;1.17;;;4.60;99.90;;;;;;6127368;23;20013;-82
2022/02/07 08:42:06;;;;;;;15.95;0.93;;;4.60;99.90;;;;;;6152052;23;20066;-84
2022/02/07 08:44:32;;;;;;;14.80;1.08;;;4.60;99.90;;;;;;6126950;23;20088;-83
2022/02/07 08:46:57;;;;;;;14.55;0.63;;;4.70;99.90;;;;;;6153701;23;20010;-83
2022/02/07 08:49:24;;;;;;;11.23;1.35;;;4.70;99.90;;;;;;6127352;23;20431;-83
2022/02/07 08:51:50;;;;;;;17.20;0.95;;;4.80;99.90;;;;;;6151897;23;20005;-83
2022/02/07 08:54:22;;;;;;;17.08;1.30;;;4.80;99.90;;;;;;6151238;23;20012;-83
2022/02/07 08:57:03;;;;;;;16.95;1.40;;;4.90;99.90;;;;;;6151092;23;20032;-83
2022/02/07 08:59:41;;;;;;;14.10;1.00;;;5.00;99.90;;;;;;6152192;23;20088;-83
2022/02/07 09:02:53;;;;;;;16.73;1.33;;;5.00;99.90;;;;;;6151860;23;20017;-83
2022/02/07 09:07:47;;;;;;;11.77;0.93;;;5.20;99.90;;;;;;6151303;23;20016;-83
2022/02/07 09:10:12;;;;;;;10.45;0.65;;;5.30;99.90;;;;;;6127051;23;20033;-84
2022/02/07 09:12:42;;;;;;;13.13;0.85;;;5.30;99.90;;;;;;6126747;23;20012;-83
2022/02/07 09:15:29;;;;;;;14.00;0.70;;;5.40;99.90;;;;;;6153204;23;20561;-83
2022/02/07 09:18:02;;;;;;;12.40;1.63;;;5.50;99.90;;;;;;6153104;23;20010;-83
2022/02/07 09:20:28;;;;;;;19.33;0.95;;;5.50;99.90;;;;;;6151627;23;20386;-83
2022/02/07 09:22:53;;;;;;;13.27;0.70;;;5.60;99.90;;;;;;6150921;23;20036;-81
2022/02/07 09:25:19;;;;;;;21.08;1.02;;;5.70;99.90;;;;;;6126710;23;20021;-83
2022/02/07 09:27:44;;;;;;;21.38;1.58;;;5.90;99.90;;;;;;6126459;23;20009;-82
2022/02/07 09:30:10;;;;;;;12.95;0.93;;;6.00;99.90;;;;;;6102195;23;20016;-82
2022/02/07 09:32:36;;;;;;;15.77;1.17;;;5.90;99.90;;;;;;6126022;23;20335;-82
2022/02/07 09:35:02;;;;;;;16.25;1.20;;;6.00;99.90;;;;;;6126778;23;20077;-82
2022/02/07 09:37:28;;;;;;;14.40;1.33;;;6.10;99.90;;;;;;6125709;23;20124;-82
2022/02/07 09:39:54;;;;;;;11.90;1.33;;;6.20;99.90;;;;;;6126197;23;20063;-82
2022/02/07 09:42:20;;;;;;;16.63;1.48;;;6.20;99.90;;;;;;6126086;23;20021;-81
2022/02/07 09:44:52;;;;;;;16.17;0.90;;;6.30;99.90;;;;;;6101951;23;20010;-81
2022/02/07 09:47:18;;;;;;;16.60;1.38;;;6.40;99.90;;;;;;6126762;23;20002;-82
2022/02/07 09:49:45;;;;;;;18.80;1.13;;;6.50;99.90;;;;;;6126372;23;20017;-83
2022/02/07 09:52:11;;;;;;;20.33;1.40;;;6.50;99.90;;;;;;6126125;23;20006;-82
2022/02/07 09:54:38;;;;;;;24.70;1.58;;;6.60;99.90;;;;;;6101393;23;20032;-82
2022/02/07 09:57:04;;;;;;;15.55;1.30;;;6.80;99.90;;;;;;6126639;23;20009;-82
2022/02/07 09:59:31;;;;;;;20.92;1.23;;;6.90;99.90;;;;;;6152503;23;20010;-83
2022/02/07 10:02:01;;;;;;;19.60;1.45;;;6.80;99.90;;;;;;6126509;23;20085;-84
2022/02/07 10:04:39;;;;;;;16.02;1.20;;;6.90;99.90;;;;;;6102521;23;20017;-83
2022/02/07 10:07:18;;;;;;;17.92;1.90;;;7.00;99.90;;;;;;6101790;23;20013;-84
2022/02/07 10:09:53;;;;;;;18.35;1.10;;;7.10;99.90;;;;;;6151846;23;20150;-83
2022/02/07 10:20:43;;;;;;;17.75;1.35;;;7.10;99.90;;;;;;6152354;23;20064;-82
2022/02/07 10:34:32;;;;;;;17.00;1.38;;;7.00;99.90;;;;;;6124896;23;20028;-83
2022/02/07 10:40:35;;;;;;;14.65;0.85;;;6.80;99.90;;;;;;6126491;23;20017;-83
2022/02/07 10:43:32;;;;;;;15.90;0.68;;;7.30;99.90;;;;;;6125884;23;20024;-83
2022/02/07 10:46:09;;;;;;;10.30;0.95;;;7.20;99.90;;;;;;6101917;23;20017;-83
2022/02/07 10:48:40;;;;;;;7.57;0.63;;;7.10;99.90;;;;;;6152720;23;20092;-84
2022/02/07 10:51:08;;;;;;;18.65;1.10;;;7.00;99.90;;;;;;6126479;23;20431;-83
2022/02/07 10:53:43;;;;;;;12.60;0.88;;;6.80;99.90;;;;;;6100733;23;20207;-82
2022/02/07 10:56:10;;;;;;;15.75;1.48;;;6.70;99.90;;;;;;6127092;23;20012;-83
2022/02/07 10:58:38;;;;;;;11.98;1.15;;;6.60;99.90;;;;;;6101510;23;20009;-84
2022/02/07 11:01:10;;;;;;;11.10;0.60;;;6.80;99.90;;;;;;6125726;23;20018;-81
2022/02/07 11:03:42;;;;;;;11.35;0.70;;;7.10;99.90;;;;;;6151827;23;20014;-84
2022/02/07 11:06:10;;;;;;;12.93;0.60;;;7.20;99.90;;;;;;6125457;23;20005;-82
2022/02/07 11:16:34;;;;;;;15.98;0.77;;;6.90;99.90;;;;;;6126510;23;20006;-83
2022/02/07 11:19:33;;;;;;;13.00;1.05;;;7.10;99.90;;;;;;6104002;23;20061;-84
2022/02/07 11:22:13;;;;;;;13.73;1.15;;;7.00;99.90;;;;;;6125628;23;20010;-83
2022/02/07 11:25:06;;;;;;;11.50;0.93;;;7.20;99.90;;;;;;6143523;23;20017;-82
2022/02/07 11:27:36;;;;;;;13.05;0.93;;;7.40;99.90;;;;;;6125584;23;20088;-81
2022/02/07 11:30:10;;;;;;;14.52;1.15;;;7.70;99.90;;;;;;6126202;23;20030;-81
2022/02/07 11:32:43;;;;;;;22.67;2.20;;;7.50;99.90;;;;;;6125362;23;20458;-82
2022/02/07 11:35:15;;;;;;;7.72;0.70;;;7.20;99.90;;;;;;6125580;23;20072;-83
2022/02/07 11:37:41;;;;;;;14.75;1.00;;;7.30;99.90;;;;;;6127361;23;20009;-83
2022/02/07 11:40:26;;;;;;;20.10;2.05;;;7.50;99.90;;;;;;6128189;23;20104;-82
2022/02/07 11:43:13;;;;;;;11.52;0.80;;;7.70;99.90;;;;;;6127751;23;20047;-83
2022/02/07 11:46:04;;;;;;;14.15;1.85;;;7.90;99.90;;;;;;6127424;23;20036;-82
2022/02/07 11:48:37;;;;;;;10.60;0.50;;;8.00;99.90;;;;;;6127553;23;20427;-84
2022/02/07 11:51:30;;;;;;;19.20;0.85;;;8.00;99.90;;;;;;6126922;23;20468;-83
2022/02/07 11:53:59;;;;;;;13.32;0.77;;;8.10;99.90;;;;;;6152258;23;20087;-82
2022/02/07 11:56:48;;;;;;;16.90;0.80;;;8.30;99.90;;;;;;6127303;23;20013;-83
2022/02/07 12:01:58;;;;;;;11.82;0.60;;;8.50;99.90;;;;;;6152169;23;20029;-82
2022/02/07 12:04:29;;;;;;;12.82;0.73;;;8.50;99.90;;;;;;6126749;23;20525;-85
2022/02/07 12:07:10;;;;;;;10.45;0.90;;;8.60;99.90;;;;;;6127425;23;20454;-82
2022/02/07 12:09:37;;;;;;;11.57;0.60;;;8.60;99.90;;;;;;6152364;23;20012;-83
2022/02/07 12:12:04;;;;;;;11.40;0.68;;;8.70;99.90;;;;;;6153082;23;20010;-83
2022/02/07 12:14:34;;;;;;;9.90;0.40;;;8.70;99.90;;;;;;6127460;23;20009;-83
2022/02/07 12:17:01;;;;;;;7.93;0.50;;;8.50;99.90;;;;;;6128097;23;20021;-83
2022/02/07 12:19:40;;;;;;;8.18;0.40;;;8.50;99.90;;;;;;6152047;23;20006;-86
2022/02/07 12:22:16;;;;;;;9.85;0.60;;;8.50;99.90;;;;;;6152171;23;20316;-85
2022/02/07 12:24:53;;;;;;;12.95;0.63;;;8.40;99.90;;;;;;6127209;23;20017;-83
2022/02/07 12:27:20;;;;;;;6.25;0.50;;;8.30;99.90;;;;;;6104630;23;20033;-85
2022/02/07 12:32:30;;;;;;;11.98;0.60;;;8.40;99.90;;;;;;6151824;23;20141;-83
2022/02/07 12:34:56;;;;;;;9.82;0.60;;;8.00;99.90;;;;;;6126549;23;20010;-83
2022/02/07 12:37:23;;;;;;;8.00;0.50;;;8.00;99.90;;;;;;6127297;23;20008;-81
2022/02/07 12:39:49;;;;;;;8.38;0.50;;;8.40;99.90;;;;;;6151862;23;20041;-83
2022/02/07 12:42:15;;;;;;;9.60;0.70;;;8.20;99.90;;;;;;6127134;23;20021;-84
2022/02/07 12:44:41;;;;;;;12.63;0.70;;;8.10;99.90;;;;;;6151818;23;20052;-84
2022/02/07 12:47:09;;;;;;;10.52;0.45;;;8.10;99.90;;;;;;6127189;23;20055;-84
2022/02/07 12:49:35;;;;;;;10.93;1.05;;;8.10;99.90;;;;;;6127301;23;20036;-83
2022/02/07 12:52:01;;;;;;;6.47;0.60;;;7.80;99.90;;;;;;6151898;23;20048;-84
2022/02/07 12:54:27;;;;;;;8.50;0.47;;;7.80;99.90;;;;;;6102744;23;20331;-84
2022/02/07 12:56:59;;;;;;;8.88;0.70;;;7.60;99.90;;;;;;6127682;23;20013;-81
2022/02/07 12:59:25;;;;;;;13.02;0.50;;;7.50;99.90;;;;;;6127631;23;20017;-83
2022/02/07 13:01:53;;;;;;;14.43;0.70;;;7.50;99.90;;;;;;6127077;23;20435;-87
2022/02/07 13:04:21;;;;;;;7.55;0.47;;;7.40;99.90;;;;;;6126950;23;20017;-85
2022/02/07 13:06:55;;;;;;;12.00;0.40;;;7.40;99.90;;;;;;6153258;23;20112;-83
2022/02/07 13:09:41;;;;;;;7.30;0.65;;;7.60;99.90;;;;;;6127352;23;20010;-83
2022/02/07 13:14:45;;;;;;;11.18;0.60;;;7.70;99.90;;;;;;6151561;23;20009;-82
2022/02/07 13:17:11;;;;;;;9.10;0.30;;;7.80;99.90;;;;;;6151529;23;20010;-83
2022/02/07 13:19:39;;;;;;;8.02;0.55;;;8.00;99.90;;;;;;6151407;23;20077;-82
2022/02/07 13:22:06;;;;;;;12.40;0.45;;;7.90;99.90;;;;;;6126785;23;20434;-84
2022/02/07 13:24:35;;;;;;;7.32;0.40;;;7.70;99.90;;;;;;6126712;23;20085;-83
2022/02/07 13:27:04;;;;;;;5.55;0.50;;;7.70;99.90;;;;;;6151592;23;20068;-84
2022/02/07 13:29:35;;;;;;;9.73;0.75;;;7.90;99.90;;;;;;6126944;23;20054;-85
2022/02/07 13:32:05;;;;;;;7.53;0.40;;;7.80;99.90;;;;;;6125933;23;20459;-85
2022/02/07 13:34:37;;;;;;;6.75;0.50;;;7.80;99.90;;;;;;6126769;23;20013;-83
2022/02/07 13:37:10;;;;;;;12.48;0.50;;;7.60;99.90;;;;;;6126898;23;20056;-83
2022/02/07 13:40:01;;;;;;;8.82;0.40;;;7.40;99.90;;;;;;6126244;23;20009;-81
2022/02/07 13:42:31;;;;;;;6.72;0.47;;;7.40;99.90;;;;;;6126918;23;20024;-85
2022/02/07 13:45:03;;;;;;;10.88;0.38;;;7.40;99.90;;;;;;6126591;23;20334;-83
2022/02/07 13:47:29;;;;;;;7.75;0.40;;;7.40;99.90;;;;;;6126248;23;20092;-83
2022/02/07 13:49:55;;;;;;;11.02;0.55;;;7.50;99.90;;;;;;6126937;23;20103;-84
2022/02/07 13:52:21;;;;;;;11.82;0.60;;;7.70;99.90;;;;;;6126870;23;20092;-85
2022/02/07 13:54:47;;;;;;;6.88;0.47;;;7.60;99.90;;;;;;6151436;23;20558;-85
2022/02/07 13:57:12;;;;;;;8.93;0.40;;;7.50;99.90;;;;;;6152166;23;20060;-86
2022/02/07 13:59:38;;;;;;;10.88;0.85;;;7.60;99.90;;;;;;6126065;23;20105;-84
2022/02/07 14:02:25;;;;;;;7.43;0.90;;;7.60;99.90;;;;;;6125772;23;20040;-84
2022/02/07 14:04:53;;;;;;;8.63;0.40;;;7.40;99.90;;;;;;6125239;23;20004;-85
2022/02/07 14:07:18;;;;;;;10.05;0.57;;;7.40;99.90;;;;;;6151586;23;20005;-83
2022/02/07 14:09:44;;;;;;;7.30;0.30;;;7.30;99.90;;;;;;6127091;23;20393;-85
2022/02/07 14:12:10;;;;;;;5.20;0.40;;;7.40;99.90;;;;;;6127195;23;20015;-84
2022/02/07 14:14:35;;;;;;;7.15;0.40;;;7.50;99.90;;;;;;6126668;23;20004;-85
2022/02/07 14:17:01;;;;;;;8.40;0.40;;;7.50;99.90;;;;;;6127280;23;20037;-83
2022/02/07 14:19:43;;;;;;;5.63;0.35;;;7.20;99.90;;;;;;6153423;23;20089;-85
2022/02/07 14:22:10;;;;;;;7.55;0.40;;;7.20;99.90;;;;;;6127039;23;20005;-83
2022/02/07 14:24:37;;;;;;;9.50;0.40;;;7.20;99.90;;;;;;6150647;23;20104;-84
2022/02/07 14:27:03;;;;;;;5.82;0.35;;;7.20;99.90;;;;;;6151811;23;20005;-82
2022/02/07 14:29:29;;;;;;;6.43;0.40;;;7.20;99.90;;;;;;6126441;23;20012;-85
2022/02/07 14:31:55;;;;;;;7.50;0.38;;;7.30;99.90;;;;;;6151324;23;20037;-83
2022/02/07 14:34:21;;;;;;;9.55;0.40;;;7.20;99.90;;;;;;6151657;23;20435;-83
2022/02/07 14:36:46;;;;;;;8.00;0.40;;;7.10;99.90;;;;;;6125729;23;20080;-83
2022/02/07 14:39:12;;;;;;;5.05;0.30;;;7.10;99.90;;;;;;6126635;23;20017;-84
2022/02/07 14:41:38;;;;;;;4.57;0.40;;;7.20;99.90;;;;;;6126259;23;20010;-83
2022/02/07 14:44:04;;;;;;;5.50;0.20;;;7.30;99.90;;;;;;6150422;23;20017;-83
2022/02/07 14:46:49;;;;;;;5.15;0.35;;;7.20;99.90;;;;;;6149753;23;20020;-84
2022/02/07 14:49:14;;;;;;;9.73;0.40;;;7.30;99.90;;;;;;6126766;23;20040;-84
2022/02/07 14:51:40;;;;;;;5.20;0.40;;;7.30;99.90;;;;;;6152762;23;20005;-83
2022/02/07 14:54:06;;;;;;;5.18;0.30;;;7.20;99.90;;;;;;6126570;23;20462;-83
2022/02/07 14:56:31;;;;;;;8.35;0.43;;;7.20;99.90;;;;;;6126680;23;20084;-84
2022/02/07 14:58:57;;;;;;;5.55;0.52;;;7.10;99.90;;;;;;6126223;23;20060;-82
2022/02/07 15:01:23;;;;;;;5.75;0.35;;;7.10;99.90;;;;;;6126071;23;20010;-83
2022/02/07 15:03:49;;;;;;;3.90;0.30;;;7.10;99.90;;;;;;6098911;23;20021;-83
2022/02/07 15:06:16;;;;;;;8.27;0.40;;;7.10;99.90;;;;;;6124673;23;20009;-84
2022/02/07 15:08:42;;;;;;;6.93;0.50;;;7.10;99.90;;;;;;6124724;23;20035;-82
2022/02/07 15:11:08;;;;;;;6.05;0.47;;;7.00;99.90;;;;;;6125717;23;20006;-82
2022/02/07 15:13:34;;;;;;;5.40;0.40;;;6.90;99.90;;;;;;6150156;23;20010;-83